FRA weather

Frankfurt am Main Airport
Frankfurt am Main, Hesse, Germany

Public forecast

Using degrees Celsius for public forecast. Weather courtesy of forecast.io.

Current aviation weather report (METAR) for Frankfurt am Main Airport

Retrieved 2019/10/20 20:20 UTC (0 seconds ago):

EDDF 202020Z 06006KT CAVOK 15/14 Q1008 NOSIG

Aviation forecast (TAF) for Frankfurt am Main Airport

Retrieved 2019/10/20 18:27 UTC (2 hours ago):

TAF TAF EDDF 201700Z 2018/2124 04004KT CAVOK TEMPO 2023/2108 3000 BR BECMG 2102/2105 18005KT PROB30 TEMPO 2102/2107 0500 FG BKN001 BECMG 2108/2111 22010KT TEMPO 2108/2117 BKN030 BECMG 2119/2121 20004KT